ENRA/MQN METAR and TAF weather

Enter ICAO airport designator
Station Type Date Time Source
ENRA METAR 2021/07/27 20:50 UTC NOAA

ENRA 272050Z 12003KT CAVOK 19/14 Q1013


Station Type Date Time Source
ENRA Decoded METAR 2021/07/27 20:50 UTC NOAA

Mo I Rana / Rossvoll, Norway (ENRA) 66-22N 014-18E 70M
Jul 27, 2021 - 04:50 PM EDT / 2021.07.27 2050 UTC
Wind: from the ESE (120 degrees) at 3 MPH (3 KT):0
Visibility: greater than 7 mile(s):0
Temperature: 66 F (19 C)
Dew Point: 57 F (14 C)
Relative Humidity: 72%
Pressure (altimeter): 29.91 in. Hg (1013 hPa)
ob: ENRA 272050Z 12003KT CAVOK 19/14 Q1013
cycle: 21

Station Type Date Time Source
ENRA TAF UTC NOAA

Error!

Example: see airport list